sensor_id;sensor_type;location;lat;lon;timestamp;temperature;humidity
15625;DHT22;7912;51.376;6.126;2022-10-28T00:01:22;20.90;99.90
15625;DHT22;7912;51.376;6.126;2022-10-28T00:03:57;20.90;99.90
15625;DHT22;7912;51.376;6.126;2022-10-28T00:06:29;20.90;99.90
15625;DHT22;7912;51.376;6.126;2022-10-28T00:08:59;20.90;99.90
15625;DHT22;7912;51.376;6.126;2022-10-28T00:11:33;20.90;99.90
15625;DHT22;7912;51.376;6.126;2022-10-28T00:14:05;20.90;99.90
15625;DHT22;7912;51.376;6.126;2022-10-28T00:16:35;20.90;99.90
15625;DHT22;7912;51.376;6.126;2022-10-28T00:19:06;20.90;99.90
15625;DHT22;7912;51.376;6.126;2022-10-28T00:21:37;20.90;99.90
15625;DHT22;7912;51.376;6.126;2022-10-28T00:24:08;20.90;99.90
15625;DHT22;7912;51.376;6.126;2022-10-28T00:26:38;20.90;99.90
15625;DHT22;7912;51.376;6.126;2022-10-28T00:29:19;20.80;99.90
15625;DHT22;7912;51.376;6.126;2022-10-28T00:31:47;20.80;99.90
15625;DHT22;7912;51.376;6.126;2022-10-28T00:34:17;20.80;99.90
15625;DHT22;7912;51.376;6.126;2022-10-28T00:36:47;20.80;99.90
15625;DHT22;7912;51.376;6.126;2022-10-28T00:39:20;20.70;99.90
15625;DHT22;7912;51.376;6.126;2022-10-28T00:41:53;20.80;99.90
15625;DHT22;7912;51.376;6.126;2022-10-28T00:47:48;20.70;99.90
15625;DHT22;7912;51.376;6.126;2022-10-28T00:50:36;20.70;99.90
15625;DHT22;7912;51.376;6.126;2022-10-28T00:53:36;20.70;99.90
15625;DHT22;7912;51.376;6.126;2022-10-28T00:56:08;20.70;99.90
15625;DHT22;7912;51.376;6.126;2022-10-28T00:58:38;20.70;99.90
15625;DHT22;7912;51.376;6.126;2022-10-28T01:01:07;20.60;99.90
15625;DHT22;7912;51.376;6.126;2022-10-28T01:03:35;20.60;99.90
15625;DHT22;7912;51.376;6.126;2022-10-28T01:06:04;20.60;99.90
15625;DHT22;7912;51.376;6.126;2022-10-28T01:08:34;20.60;99.90
15625;DHT22;7912;51.376;6.126;2022-10-28T01:14:19;20.50;99.90
15625;DHT22;7912;51.376;6.126;2022-10-28T01:41:30;20.20;99.90
15625;DHT22;7912;51.376;6.126;2022-10-28T01:44:40;20.20;99.90
15625;DHT22;7912;51.376;6.126;2022-10-28T01:47:29;20.10;99.90
15625;DHT22;7912;51.376;6.126;2022-10-28T01:50:45;20.10;99.90
15625;DHT22;7912;51.376;6.126;2022-10-28T01:53:27;20.00;99.90
15625;DHT22;7912;51.376;6.126;2022-10-28T01:56:02;20.00;99.90
15625;DHT22;7912;51.376;6.126;2022-10-28T01:58:35;20.00;99.90
15625;DHT22;7912;51.376;6.126;2022-10-28T02:01:06;19.90;99.90
15625;DHT22;7912;51.376;6.126;2022-10-28T02:03:35;19.90;99.90
15625;DHT22;7912;51.376;6.126;2022-10-28T02:06:06;19.90;99.90
15625;DHT22;7912;51.376;6.126;2022-10-28T02:15:01;19.80;99.90
15625;DHT22;7912;51.376;6.126;2022-10-28T02:18:12;19.70;99.90
15625;DHT22;7912;51.376;6.126;2022-10-28T02:24:23;19.70;99.90
15625;DHT22;7912;51.376;6.126;2022-10-28T02:30:28;19.60;99.90
15625;DHT22;7912;51.376;6.126;2022-10-28T02:33:01;19.50;99.90
15625;DHT22;7912;51.376;6.126;2022-10-28T02:35:39;19.50;99.90
15625;DHT22;7912;51.376;6.126;2022-10-28T02:38:18;19.50;99.90
15625;DHT22;7912;51.376;6.126;2022-10-28T02:40:55;19.50;99.90
15625;DHT22;7912;51.376;6.126;2022-10-28T02:43:29;19.50;99.90
15625;DHT22;7912;51.376;6.126;2022-10-28T02:46:01;19.50;99.90
15625;DHT22;7912;51.376;6.126;2022-10-28T02:48:30;19.40;99.90
15625;DHT22;7912;51.376;6.126;2022-10-28T02:51:16;19.40;99.90
15625;DHT22;7912;51.376;6.126;2022-10-28T02:53:56;19.40;99.90
15625;DHT22;7912;51.376;6.126;2022-10-28T02:56:30;19.40;99.90
15625;DHT22;7912;51.376;6.126;2022-10-28T02:59:03;19.40;99.90
15625;DHT22;7912;51.376;6.126;2022-10-28T03:01:37;19.40;99.90
15625;DHT22;7912;51.376;6.126;2022-10-28T03:04:05;19.40;99.90
15625;DHT22;7912;51.376;6.126;2022-10-28T03:06:33;19.40;99.90
15625;DHT22;7912;51.376;6.126;2022-10-28T03:09:00;19.40;99.90
15625;DHT22;7912;51.376;6.126;2022-10-28T03:11:28;19.30;99.90
15625;DHT22;7912;51.376;6.126;2022-10-28T03:13:55;19.30;99.90
15625;DHT22;7912;51.376;6.126;2022-10-28T03:16:23;19.30;99.90
15625;DHT22;7912;51.376;6.126;2022-10-28T03:18:54;19.30;99.90
15625;DHT22;7912;51.376;6.126;2022-10-28T03:21:22;19.30;99.90
15625;DHT22;7912;51.376;6.126;2022-10-28T03:23:50;19.30;99.90
15625;DHT22;7912;51.376;6.126;2022-10-28T03:26:18;19.30;99.90
15625;DHT22;7912;51.376;6.126;2022-10-28T03:28:46;19.30;99.90
15625;DHT22;7912;51.376;6.126;2022-10-28T03:31:14;19.30;99.90
15625;DHT22;7912;51.376;6.126;2022-10-28T03:33:42;19.30;99.90
15625;DHT22;7912;51.376;6.126;2022-10-28T03:36:10;19.20;99.90
15625;DHT22;7912;51.376;6.126;2022-10-28T03:38:43;19.20;99.90
15625;DHT22;7912;51.376;6.126;2022-10-28T03:41:14;19.20;99.90
15625;DHT22;7912;51.376;6.126;2022-10-28T03:43:42;19.20;99.90
15625;DHT22;7912;51.376;6.126;2022-10-28T03:46:09;19.20;99.90
15625;DHT22;7912;51.376;6.126;2022-10-28T03:48:37;19.10;99.90
15625;DHT22;7912;51.376;6.126;2022-10-28T03:51:05;19.10;99.90
15625;DHT22;7912;51.376;6.126;2022-10-28T03:53:32;19.10;99.90
15625;DHT22;7912;51.376;6.126;2022-10-28T03:56:01;19.10;99.90
15625;DHT22;7912;51.376;6.126;2022-10-28T03:58:29;19.00;99.90
15625;DHT22;7912;51.376;6.126;2022-10-28T04:00:56;19.00;99.90
15625;DHT22;7912;51.376;6.126;2022-10-28T04:03:25;19.00;99.90
15625;DHT22;7912;51.376;6.126;2022-10-28T04:05:53;18.90;99.90
15625;DHT22;7912;51.376;6.126;2022-10-28T04:08:20;18.90;99.90
15625;DHT22;7912;51.376;6.126;2022-10-28T04:10:48;18.80;99.90
15625;DHT22;7912;51.376;6.126;2022-10-28T04:13:16;18.80;99.90
15625;DHT22;7912;51.376;6.126;2022-10-28T04:15:44;18.80;99.90
15625;DHT22;7912;51.376;6.126;2022-10-28T04:18:12;18.70;99.90
15625;DHT22;7912;51.376;6.126;2022-10-28T04:20:40;18.70;99.90
15625;DHT22;7912;51.376;6.126;2022-10-28T04:23:08;18.70;99.90
15625;DHT22;7912;51.376;6.126;2022-10-28T04:25:44;18.60;99.90
15625;DHT22;7912;51.376;6.126;2022-10-28T04:28:11;18.60;99.90
15625;DHT22;7912;51.376;6.126;2022-10-28T04:30:40;18.60;99.90
15625;DHT22;7912;51.376;6.126;2022-10-28T04:33:10;18.60;99.90
15625;DHT22;7912;51.376;6.126;2022-10-28T04:35:38;18.60;99.90
15625;DHT22;7912;51.376;6.126;2022-10-28T04:38:10;18.50;99.90
15625;DHT22;7912;51.376;6.126;2022-10-28T04:40:38;18.50;99.90
15625;DHT22;7912;51.376;6.126;2022-10-28T04:43:06;18.50;99.90
15625;DHT22;7912;51.376;6.126;2022-10-28T04:45:36;18.50;99.90
15625;DHT22;7912;51.376;6.126;2022-10-28T04:48:08;18.50;99.90
15625;DHT22;7912;51.376;6.126;2022-10-28T04:50:36;18.50;99.90
15625;DHT22;7912;51.376;6.126;2022-10-28T04:53:04;18.50;99.90
15625;DHT22;7912;51.376;6.126;2022-10-28T04:55:31;18.50;99.90
15625;DHT22;7912;51.376;6.126;2022-10-28T04:58:00;18.50;99.90
15625;DHT22;7912;51.376;6.126;2022-10-28T05:00:28;18.50;99.90
15625;DHT22;7912;51.376;6.126;2022-10-28T05:03:00;18.50;99.90
15625;DHT22;7912;51.376;6.126;2022-10-28T05:05:29;18.50;99.90
15625;DHT22;7912;51.376;6.126;2022-10-28T05:07:56;18.60;99.90
15625;DHT22;7912;51.376;6.126;2022-10-28T05:10:24;18.50;99.90
15625;DHT22;7912;51.376;6.126;2022-10-28T05:12:52;18.50;99.90
15625;DHT22;7912;51.376;6.126;2022-10-28T05:15:19;18.50;99.90
15625;DHT22;7912;51.376;6.126;2022-10-28T05:17:47;18.50;99.90
15625;DHT22;7912;51.376;6.126;2022-10-28T05:20:18;18.50;99.90
15625;DHT22;7912;51.376;6.126;2022-10-28T05:22:48;18.50;99.90
15625;DHT22;7912;51.376;6.126;2022-10-28T05:25:20;18.50;99.90
15625;DHT22;7912;51.376;6.126;2022-10-28T05:27:49;18.50;99.90
15625;DHT22;7912;51.376;6.126;2022-10-28T05:30:17;18.50;99.90
15625;DHT22;7912;51.376;6.126;2022-10-28T05:32:45;18.40;99.90
15625;DHT22;7912;51.376;6.126;2022-10-28T05:35:17;18.40;99.90
15625;DHT22;7912;51.376;6.126;2022-10-28T05:37:44;18.40;99.90
15625;DHT22;7912;51.376;6.126;2022-10-28T05:40:12;18.40;99.90
15625;DHT22;7912;51.376;6.126;2022-10-28T05:42:40;18.40;99.90
15625;DHT22;7912;51.376;6.126;2022-10-28T05:45:11;18.30;99.90
15625;DHT22;7912;51.376;6.126;2022-10-28T05:47:46;18.40;99.90
15625;DHT22;7912;51.376;6.126;2022-10-28T05:50:16;18.40;99.90
15625;DHT22;7912;51.376;6.126;2022-10-28T05:52:50;18.30;99.90
15625;DHT22;7912;51.376;6.126;2022-10-28T05:55:21;18.30;99.90
15625;DHT22;7912;51.376;6.126;2022-10-28T05:57:51;18.30;99.90
15625;DHT22;7912;51.376;6.126;2022-10-28T06:00:22;18.30;99.90
15625;DHT22;7912;51.376;6.126;2022-10-28T06:02:50;18.30;99.90
15625;DHT22;7912;51.376;6.126;2022-10-28T06:05:21;18.30;99.90
15625;DHT22;7912;51.376;6.126;2022-10-28T06:07:49;18.30;99.90
15625;DHT22;7912;51.376;6.126;2022-10-28T06:10:17;18.30;99.90
15625;DHT22;7912;51.376;6.126;2022-10-28T06:12:44;18.30;99.90
15625;DHT22;7912;51.376;6.126;2022-10-28T06:15:12;18.30;99.90
15625;DHT22;7912;51.376;6.126;2022-10-28T06:17:40;18.30;99.90
15625;DHT22;7912;51.376;6.126;2022-10-28T06:20:08;18.40;99.90
15625;DHT22;7912;51.376;6.126;2022-10-28T06:22:36;18.40;99.90
15625;DHT22;7912;51.376;6.126;2022-10-28T06:25:04;18.40;99.90
15625;DHT22;7912;51.376;6.126;2022-10-28T06:27:32;18.40;99.90
15625;DHT22;7912;51.376;6.126;2022-10-28T06:29:59;18.40;99.90
15625;DHT22;7912;51.376;6.126;2022-10-28T06:32:27;18.40;99.90
15625;DHT22;7912;51.376;6.126;2022-10-28T06:34:55;18.40;99.90
15625;DHT22;7912;51.376;6.126;2022-10-28T06:37:23;18.50;99.90
15625;DHT22;7912;51.376;6.126;2022-10-28T06:39:51;18.40;99.90
15625;DHT22;7912;51.376;6.126;2022-10-28T06:42:19;18.50;99.90
15625;DHT22;7912;51.376;6.126;2022-10-28T06:44:47;18.50;99.90
15625;DHT22;7912;51.376;6.126;2022-10-28T06:47:16;18.50;99.90
15625;DHT22;7912;51.376;6.126;2022-10-28T06:49:44;18.50;99.90
15625;DHT22;7912;51.376;6.126;2022-10-28T06:52:12;18.50;99.90
15625;DHT22;7912;51.376;6.126;2022-10-28T06:54:40;18.50;99.90
15625;DHT22;7912;51.376;6.126;2022-10-28T06:57:10;18.60;99.90
15625;DHT22;7912;51.376;6.126;2022-10-28T06:59:38;18.60;99.90
15625;DHT22;7912;51.376;6.126;2022-10-28T07:02:08;18.60;99.90
15625;DHT22;7912;51.376;6.126;2022-10-28T07:04:38;18.60;99.90
15625;DHT22;7912;51.376;6.126;2022-10-28T07:07:05;18.70;99.90
15625;DHT22;7912;51.376;6.126;2022-10-28T07:09:35;18.70;99.90
15625;DHT22;7912;51.376;6.126;2022-10-28T07:12:06;18.70;99.90
15625;DHT22;7912;51.376;6.126;2022-10-28T07:14:34;18.80;99.90
15625;DHT22;7912;51.376;6.126;2022-10-28T07:17:01;18.80;99.90
15625;DHT22;7912;51.376;6.126;2022-10-28T07:19:29;18.80;99.90
15625;DHT22;7912;51.376;6.126;2022-10-28T07:21:57;18.90;99.90
15625;DHT22;7912;51.376;6.126;2022-10-28T07:24:25;18.90;99.90
15625;DHT22;7912;51.376;6.126;2022-10-28T07:26:53;19.00;99.90
15625;DHT22;7912;51.376;6.126;2022-10-28T07:29:24;19.00;99.90
15625;DHT22;7912;51.376;6.126;2022-10-28T07:31:54;19.10;99.90
15625;DHT22;7912;51.376;6.126;2022-10-28T07:34:22;19.10;99.90
15625;DHT22;7912;51.376;6.126;2022-10-28T07:36:54;19.10;99.90
15625;DHT22;7912;51.376;6.126;2022-10-28T07:39:23;19.20;99.90
15625;DHT22;7912;51.376;6.126;2022-10-28T07:41:50;19.20;99.90
15625;DHT22;7912;51.376;6.126;2022-10-28T07:44:18;19.30;99.90
15625;DHT22;7912;51.376;6.126;2022-10-28T07:46:47;19.30;99.90
15625;DHT22;7912;51.376;6.126;2022-10-28T07:49:21;19.40;99.90
15625;DHT22;7912;51.376;6.126;2022-10-28T07:51:49;19.50;99.90
15625;DHT22;7912;51.376;6.126;2022-10-28T07:54:18;19.50;99.90
15625;DHT22;7912;51.376;6.126;2022-10-28T07:56:46;19.60;99.90
15625;DHT22;7912;51.376;6.126;2022-10-28T07:59:13;19.60;99.90
15625;DHT22;7912;51.376;6.126;2022-10-28T08:01:40;19.70;99.90
15625;DHT22;7912;51.376;6.126;2022-10-28T08:04:08;19.70;99.90
15625;DHT22;7912;51.376;6.126;2022-10-28T08:06:36;19.80;99.90
15625;DHT22;7912;51.376;6.126;2022-10-28T08:09:04;19.90;99.90
15625;DHT22;7912;51.376;6.126;2022-10-28T08:11:31;19.90;99.90
15625;DHT22;7912;51.376;6.126;2022-10-28T08:14:00;20.00;99.90
15625;DHT22;7912;51.376;6.126;2022-10-28T08:16:29;20.10;99.90
15625;DHT22;7912;51.376;6.126;2022-10-28T08:18:57;20.20;99.90
15625;DHT22;7912;51.376;6.126;2022-10-28T08:21:24;20.20;99.90
15625;DHT22;7912;51.376;6.126;2022-10-28T08:23:53;20.30;99.90
15625;DHT22;7912;51.376;6.126;2022-10-28T08:26:21;20.40;99.90
15625;DHT22;7912;51.376;6.126;2022-10-28T08:28:49;20.40;99.90
15625;DHT22;7912;51.376;6.126;2022-10-28T08:31:17;20.50;99.90
15625;DHT22;7912;51.376;6.126;2022-10-28T08:33:45;20.60;99.90
15625;DHT22;7912;51.376;6.126;2022-10-28T08:36:15;20.70;99.90
15625;DHT22;7912;51.376;6.126;2022-10-28T08:38:44;20.70;99.90
15625;DHT22;7912;51.376;6.126;2022-10-28T08:41:43;20.80;99.90
15625;DHT22;7912;51.376;6.126;2022-10-28T08:50:19;21.10;99.90
15625;DHT22;7912;51.376;6.126;2022-10-28T08:53:09;21.20;99.90
15625;DHT22;7912;51.376;6.126;2022-10-28T08:55:45;21.40;99.90
15625;DHT22;7912;51.376;6.126;2022-10-28T09:00:59;21.60;99.90
15625;DHT22;7912;51.376;6.126;2022-10-28T09:03:34;21.80;99.90
15625;DHT22;7912;51.376;6.126;2022-10-28T09:06:08;21.90;99.90
15625;DHT22;7912;51.376;6.126;2022-10-28T09:08:46;22.10;99.90
15625;DHT22;7912;51.376;6.126;2022-10-28T09:11:40;22.20;99.90
15625;DHT22;7912;51.376;6.126;2022-10-28T09:14:28;22.30;99.90
15625;DHT22;7912;51.376;6.126;2022-10-28T09:17:19;22.50;99.90
15625;DHT22;7912;51.376;6.126;2022-10-28T09:20:17;22.60;99.90
15625;DHT22;7912;51.376;6.126;2022-10-28T09:23:00;22.70;99.90
15625;DHT22;7912;51.376;6.126;2022-10-28T09:35:13;23.20;99.90
15625;DHT22;7912;51.376;6.126;2022-10-28T09:37:51;23.40;99.90
15625;DHT22;7912;51.376;6.126;2022-10-28T09:40:39;23.50;99.90
15625;DHT22;7912;51.376;6.126;2022-10-28T09:43:27;23.70;99.90
15625;DHT22;7912;51.376;6.126;2022-10-28T09:46:05;23.70;99.90
15625;DHT22;7912;51.376;6.126;2022-10-28T09:51:26;24.00;99.90
15625;DHT22;7912;51.376;6.126;2022-10-28T09:54:00;24.10;99.90
15625;DHT22;7912;51.376;6.126;2022-10-28T09:56:29;24.20;99.90
15625;DHT22;7912;51.376;6.126;2022-10-28T09:58:59;24.30;99.90
15625;DHT22;7912;51.376;6.126;2022-10-28T10:01:36;24.40;99.90
15625;DHT22;7912;51.376;6.126;2022-10-28T10:04:20;24.50;99.90
15625;DHT22;7912;51.376;6.126;2022-10-28T10:06:55;24.60;99.90
15625;DHT22;7912;51.376;6.126;2022-10-28T10:09:29;24.80;99.90
15625;DHT22;7912;51.376;6.126;2022-10-28T10:12:05;25.00;99.90
15625;DHT22;7912;51.376;6.126;2022-10-28T10:14:45;25.30;99.90
15625;DHT22;7912;51.376;6.126;2022-10-28T10:17:42;25.50;99.90
15625;DHT22;7912;51.376;6.126;2022-10-28T10:20:19;25.80;99.90
15625;DHT22;7912;51.376;6.126;2022-10-28T10:22:48;26.10;99.90
15625;DHT22;7912;51.376;6.126;2022-10-28T10:28:01;26.40;99.90
15625;DHT22;7912;51.376;6.126;2022-10-28T10:30:44;26.50;99.90
15625;DHT22;7912;51.376;6.126;2022-10-28T10:33:29;26.70;99.90
15625;DHT22;7912;51.376;6.126;2022-10-28T10:38:38;27.20;99.90
15625;DHT22;7912;51.376;6.126;2022-10-28T10:41:34;27.40;99.90
15625;DHT22;7912;51.376;6.126;2022-10-28T10:44:23;27.50;99.80
15625;DHT22;7912;51.376;6.126;2022-10-28T10:49:33;27.70;98.40
15625;DHT22;7912;51.376;6.126;2022-10-28T10:52:14;27.80;98.50
15625;DHT22;7912;51.376;6.126;2022-10-28T10:55:06;27.90;97.80
15625;DHT22;7912;51.376;6.126;2022-10-28T10:57:46;28.00;97.30
15625;DHT22;7912;51.376;6.126;2022-10-28T11:00:17;28.10;97.80
15625;DHT22;7912;51.376;6.126;2022-10-28T11:02:47;28.10;97.40
15625;DHT22;7912;51.376;6.126;2022-10-28T11:05:22;28.20;97.30
15625;DHT22;7912;51.376;6.126;2022-10-28T11:08:01;28.20;97.20
15625;DHT22;7912;51.376;6.126;2022-10-28T11:10:33;28.20;97.20
15625;DHT22;7912;51.376;6.126;2022-10-28T11:13:24;28.20;97.10
15625;DHT22;7912;51.376;6.126;2022-10-28T11:16:02;28.30;96.60
15625;DHT22;7912;51.376;6.126;2022-10-28T11:18:40;28.40;96.10
15625;DHT22;7912;51.376;6.126;2022-10-28T11:21:54;28.60;95.80
15625;DHT22;7912;51.376;6.126;2022-10-28T11:28:30;28.90;95.30
15625;DHT22;7912;51.376;6.126;2022-10-28T11:37:13;29.40;94.60
15625;DHT22;7912;51.376;6.126;2022-10-28T11:54:38;30.10;91.90
15625;DHT22;7912;51.376;6.126;2022-10-28T12:01:09;30.10;92.30
15625;DHT22;7912;51.376;6.126;2022-10-28T12:09:27;30.10;92.00
15625;DHT22;7912;51.376;6.126;2022-10-28T12:12:23;30.10;91.30
15625;DHT22;7912;51.376;6.126;2022-10-28T12:15:36;30.10;91.60
15625;DHT22;7912;51.376;6.126;2022-10-28T12:18:29;30.00;91.60
15625;DHT22;7912;51.376;6.126;2022-10-28T12:21:09;30.00;91.50
15625;DHT22;7912;51.376;6.126;2022-10-28T12:23:59;29.90;92.00
15625;DHT22;7912;51.376;6.126;2022-10-28T12:26:46;29.90;92.10
15625;DHT22;7912;51.376;6.126;2022-10-28T12:29:32;29.80;91.60
15625;DHT22;7912;51.376;6.126;2022-10-28T12:32:09;29.80;90.90
15625;DHT22;7912;51.376;6.126;2022-10-28T12:34:48;29.70;90.30
15625;DHT22;7912;51.376;6.126;2022-10-28T12:37:24;29.60;89.30
15625;DHT22;7912;51.376;6.126;2022-10-28T12:40:24;29.50;89.50
15625;DHT22;7912;51.376;6.126;2022-10-28T12:45:37;29.20;89.80
15625;DHT22;7912;51.376;6.126;2022-10-28T12:51:15;29.00;88.80
15625;DHT22;7912;51.376;6.126;2022-10-28T12:54:06;28.90;88.30
15625;DHT22;7912;51.376;6.126;2022-10-28T12:57:08;28.90;89.10
15625;DHT22;7912;51.376;6.126;2022-10-28T12:59:45;28.80;88.80
15625;DHT22;7912;51.376;6.126;2022-10-28T13:02:55;28.70;89.30
15625;DHT22;7912;51.376;6.126;2022-10-28T13:27:57;29.20;90.00
15625;DHT22;7912;51.376;6.126;2022-10-28T13:30:26;29.30;89.00
15625;DHT22;7912;51.376;6.126;2022-10-28T13:35:42;29.20;87.50
15625;DHT22;7912;51.376;6.126;2022-10-28T13:38:12;29.20;87.80
15625;DHT22;7912;51.376;6.126;2022-10-28T13:43:20;29.00;86.90
15625;DHT22;7912;51.376;6.126;2022-10-28T13:49:26;28.80;86.50
15625;DHT22;7912;51.376;6.126;2022-10-28T13:52:03;28.70;87.30
15625;DHT22;7912;51.376;6.126;2022-10-28T13:57:36;28.40;88.00
15625;DHT22;7912;51.376;6.126;2022-10-28T14:02:53;28.10;88.30
15625;DHT22;7912;51.376;6.126;2022-10-28T14:08:20;27.90;88.90
15625;DHT22;7912;51.376;6.126;2022-10-28T14:11:21;27.80;89.00
15625;DHT22;7912;51.376;6.126;2022-10-28T14:13:58;27.70;89.70
15625;DHT22;7912;51.376;6.126;2022-10-28T14:24:40;27.40;91.00
15625;DHT22;7912;51.376;6.126;2022-10-28T14:32:55;27.60;91.60
15625;DHT22;7912;51.376;6.126;2022-10-28T14:35:38;27.60;91.40
15625;DHT22;7912;51.376;6.126;2022-10-28T14:38:29;27.70;91.50
15625;DHT22;7912;51.376;6.126;2022-10-28T14:50:46;27.80;91.20
15625;DHT22;7912;51.376;6.126;2022-10-28T14:53:36;27.70;91.30
15625;DHT22;7912;51.376;6.126;2022-10-28T14:56:28;27.60;91.40
15625;DHT22;7912;51.376;6.126;2022-10-28T15:02:27;27.50;91.70
15625;DHT22;7912;51.376;6.126;2022-10-28T15:05:17;27.40;91.70
15625;DHT22;7912;51.376;6.126;2022-10-28T15:07:50;27.20;92.00
15625;DHT22;7912;51.376;6.126;2022-10-28T15:10:27;27.10;92.10
15625;DHT22;7912;51.376;6.126;2022-10-28T15:12:57;27.10;92.20
15625;DHT22;7912;51.376;6.126;2022-10-28T15:15:31;27.00;92.30
15625;DHT22;7912;51.376;6.126;2022-10-28T15:18:20;26.90;92.40
15625;DHT22;7912;51.376;6.126;2022-10-28T15:21:12;26.80;92.60
15625;DHT22;7912;51.376;6.126;2022-10-28T15:23:42;26.70;92.80
15625;DHT22;7912;51.376;6.126;2022-10-28T15:26:14;26.60;92.90
15625;DHT22;7912;51.376;6.126;2022-10-28T15:28:43;26.60;92.90
15625;DHT22;7912;51.376;6.126;2022-10-28T15:31:10;26.50;93.10
15625;DHT22;7912;51.376;6.126;2022-10-28T15:33:40;26.40;93.30
15625;DHT22;7912;51.376;6.126;2022-10-28T15:36:16;26.30;93.40
15625;DHT22;7912;51.376;6.126;2022-10-28T15:39:00;26.30;93.60
15625;DHT22;7912;51.376;6.126;2022-10-28T15:41:43;26.20;93.70
15625;DHT22;7912;51.376;6.126;2022-10-28T15:44:38;26.10;93.90
15625;DHT22;7912;51.376;6.126;2022-10-28T15:52:52;25.80;94.40
15625;DHT22;7912;51.376;6.126;2022-10-28T15:55:29;25.70;94.50
15625;DHT22;7912;51.376;6.126;2022-10-28T15:58:31;25.60;94.60
15625;DHT22;7912;51.376;6.126;2022-10-28T16:01:01;25.50;94.80
15625;DHT22;7912;51.376;6.126;2022-10-28T16:06:22;25.30;95.30
15625;DHT22;7912;51.376;6.126;2022-10-28T16:09:16;25.20;95.40
15625;DHT22;7912;51.376;6.126;2022-10-28T16:11:51;25.00;95.50
15625;DHT22;7912;51.376;6.126;2022-10-28T16:14:35;25.00;95.60
15625;DHT22;7912;51.376;6.126;2022-10-28T16:17:20;24.80;95.90
15625;DHT22;7912;51.376;6.126;2022-10-28T16:19:51;24.80;96.00
15625;DHT22;7912;51.376;6.126;2022-10-28T16:22:29;24.60;96.10
15625;DHT22;7912;51.376;6.126;2022-10-28T16:25:00;24.60;96.30
15625;DHT22;7912;51.376;6.126;2022-10-28T16:27:31;24.40;96.40
15625;DHT22;7912;51.376;6.126;2022-10-28T16:30:00;24.40;96.70
15625;DHT22;7912;51.376;6.126;2022-10-28T16:32:35;24.30;96.80
15625;DHT22;7912;51.376;6.126;2022-10-28T16:35:19;24.20;97.40
15625;DHT22;7912;51.376;6.126;2022-10-28T16:37:49;24.10;97.40
15625;DHT22;7912;51.376;6.126;2022-10-28T16:40:21;24.00;97.50
15625;DHT22;7912;51.376;6.126;2022-10-28T16:43:14;23.90;97.60
15625;DHT22;7912;51.376;6.126;2022-10-28T16:45:43;23.80;97.90
15625;DHT22;7912;51.376;6.126;2022-10-28T16:48:13;23.70;98.00
15625;DHT22;7912;51.376;6.126;2022-10-28T16:50:46;23.70;98.30
15625;DHT22;7912;51.376;6.126;2022-10-28T16:53:16;23.60;98.50
15625;DHT22;7912;51.376;6.126;2022-10-28T16:55:45;23.40;98.50
15625;DHT22;7912;51.376;6.126;2022-10-28T16:58:13;23.30;98.70
15625;DHT22;7912;51.376;6.126;2022-10-28T17:00:41;23.30;98.90
15625;DHT22;7912;51.376;6.126;2022-10-28T17:03:13;23.20;99.20
15625;DHT22;7912;51.376;6.126;2022-10-28T17:05:41;23.10;99.50
15625;DHT22;7912;51.376;6.126;2022-10-28T17:08:10;23.00;99.50
15625;DHT22;7912;51.376;6.126;2022-10-28T17:10:39;22.90;99.90
15625;DHT22;7912;51.376;6.126;2022-10-28T17:13:11;22.80;99.90
15625;DHT22;7912;51.376;6.126;2022-10-28T17:15:41;22.70;99.90
15625;DHT22;7912;51.376;6.126;2022-10-28T17:18:11;22.60;99.90
15625;DHT22;7912;51.376;6.126;2022-10-28T17:20:41;22.50;99.90
15625;DHT22;7912;51.376;6.126;2022-10-28T17:23:13;22.40;99.90
15625;DHT22;7912;51.376;6.126;2022-10-28T17:25:40;22.40;99.90
15625;DHT22;7912;51.376;6.126;2022-10-28T17:28:07;22.30;99.90
15625;DHT22;7912;51.376;6.126;2022-10-28T17:30:35;22.20;99.90
15625;DHT22;7912;51.376;6.126;2022-10-28T17:33:03;22.10;99.90
15625;DHT22;7912;51.376;6.126;2022-10-28T17:35:31;22.00;99.90
15625;DHT22;7912;51.376;6.126;2022-10-28T17:37:59;22.00;99.90
15625;DHT22;7912;51.376;6.126;2022-10-28T17:40:27;21.90;99.90
15625;DHT22;7912;51.376;6.126;2022-10-28T17:42:57;21.90;99.90
15625;DHT22;7912;51.376;6.126;2022-10-28T17:45:25;21.80;99.90
15625;DHT22;7912;51.376;6.126;2022-10-28T17:47:53;21.70;99.90
15625;DHT22;7912;51.376;6.126;2022-10-28T17:50:21;21.70;99.90
15625;DHT22;7912;51.376;6.126;2022-10-28T17:52:48;21.60;99.90
15625;DHT22;7912;51.376;6.126;2022-10-28T17:55:16;21.60;99.90
15625;DHT22;7912;51.376;6.126;2022-10-28T17:57:44;21.50;99.90
15625;DHT22;7912;51.376;6.126;2022-10-28T18:00:12;21.50;99.90
15625;DHT22;7912;51.376;6.126;2022-10-28T18:02:40;21.40;99.90
15625;DHT22;7912;51.376;6.126;2022-10-28T18:05:09;21.40;99.90
15625;DHT22;7912;51.376;6.126;2022-10-28T18:07:37;21.40;99.90
15625;DHT22;7912;51.376;6.126;2022-10-28T18:10:06;21.40;99.90
15625;DHT22;7912;51.376;6.126;2022-10-28T18:12:34;21.30;99.90
15625;DHT22;7912;51.376;6.126;2022-10-28T18:15:05;21.30;99.90
15625;DHT22;7912;51.376;6.126;2022-10-28T18:17:38;21.30;99.90
15625;DHT22;7912;51.376;6.126;2022-10-28T18:20:06;21.20;99.90
15625;DHT22;7912;51.376;6.126;2022-10-28T18:22:34;21.20;99.90
15625;DHT22;7912;51.376;6.126;2022-10-28T18:25:02;21.20;99.90
15625;DHT22;7912;51.376;6.126;2022-10-28T18:27:30;21.10;99.90
15625;DHT22;7912;51.376;6.126;2022-10-28T18:29:58;21.10;99.90
15625;DHT22;7912;51.376;6.126;2022-10-28T18:32:25;21.10;99.90
15625;DHT22;7912;51.376;6.126;2022-10-28T18:34:53;21.10;99.90
15625;DHT22;7912;51.376;6.126;2022-10-28T18:37:21;21.00;99.90
15625;DHT22;7912;51.376;6.126;2022-10-28T18:39:48;21.00;99.90
15625;DHT22;7912;51.376;6.126;2022-10-28T18:42:16;21.00;99.90
15625;DHT22;7912;51.376;6.126;2022-10-28T18:44:47;21.00;99.90
15625;DHT22;7912;51.376;6.126;2022-10-28T18:47:15;20.90;99.90
15625;DHT22;7912;51.376;6.126;2022-10-28T18:49:43;20.90;99.90
15625;DHT22;7912;51.376;6.126;2022-10-28T18:52:11;20.80;99.90
15625;DHT22;7912;51.376;6.126;2022-10-28T18:54:39;20.90;99.90
15625;DHT22;7912;51.376;6.126;2022-10-28T18:57:07;20.90;99.90
15625;DHT22;7912;51.376;6.126;2022-10-28T18:59:34;20.80;99.90
15625;DHT22;7912;51.376;6.126;2022-10-28T19:02:18;20.80;99.90
15625;DHT22;7912;51.376;6.126;2022-10-28T19:04:46;20.80;99.90
15625;DHT22;7912;51.376;6.126;2022-10-28T19:07:13;20.80;99.90
15625;DHT22;7912;51.376;6.126;2022-10-28T19:09:41;20.80;99.90
15625;DHT22;7912;51.376;6.126;2022-10-28T19:12:09;20.90;99.90
15625;DHT22;7912;51.376;6.126;2022-10-28T19:14:37;20.90;99.90
15625;DHT22;7912;51.376;6.126;2022-10-28T19:17:04;20.90;99.90
15625;DHT22;7912;51.376;6.126;2022-10-28T19:19:33;20.90;99.90
15625;DHT22;7912;51.376;6.126;2022-10-28T19:22:05;20.90;99.90
15625;DHT22;7912;51.376;6.126;2022-10-28T19:24:34;21.00;99.90
15625;DHT22;7912;51.376;6.126;2022-10-28T19:27:02;21.00;99.90
15625;DHT22;7912;51.376;6.126;2022-10-28T19:29:30;21.00;99.90
15625;DHT22;7912;51.376;6.126;2022-10-28T19:31:58;21.00;99.90
15625;DHT22;7912;51.376;6.126;2022-10-28T19:34:26;21.10;99.90